Terminal Aerodrome Forecast
Issued by NWS Wilmington, OH

Current Version | Previous Version | Text Only | Print | Product List | Glossary Off
Versions: 1 2 3 4 5 6 7 8 9 10 11 12 13 14 15 16 17 18 19 20 21 22 23 24

000
FTUS41 KILN 152300
TAFILN
TAF
KILN 152329Z 1600/1624 23006KT P6SM -SHRA BKN040 OVC080
      TEMPO 1600/1603 4SM -SHRA
     FM160300 27006KT P6SM VCSH OVC040
     FM160500 32008KT P6SM VCSH OVC012
     FM160700 36008KT 4SM BR OVC004
     FM161500 01008KT P6SM OVC010
     FM161700 01008KT P6SM BKN022
     FM161900 01008KT P6SM BKN035=

USA.gov is the U.S. government's official web portal to all federal, state and local government web resources and services.